PASY METAR and TAF weather

Enter ICAO airport designator
Station Type Date Time Source
PASY METAR 2020/11/27 13:58 UTC NOAA

PASY 271358Z AUTO 29019G27KT 7SM R28/5500FT FEW044 00/M06 A2931 RMK AO2 PK WND 27027/49 UPE03 SLP929 P0000 T10041059 FZRANO $


Station Type Date Time Source
PASY Decoded METAR 2020/11/27 13:58 UTC NOAA

SHEMYA EARECKSON AS, AK, United States (PASY) 52-43N 174-07E
Nov 27, 2020 - 08:58 AM EST / 2020.11.27 1358 UTC
Wind: from the WNW (290 degrees) at 22 MPH (19 KT) gusting to 31 MPH (27 KT):0
Visibility: 7 mile(s):0
Sky conditions: mostly clear
Precipitation last hour: A trace
Temperature: 31.3 F (-0.4 C)
Windchill: 19 F (-7 C):1
Dew Point: 21.4 F (-5.9 C)
Relative Humidity: 66%
Pressure (altimeter): 29.31 in. Hg (992 hPa)
ob: PASY 271358Z AUTO 29019G27KT 7SM R28/5500FT FEW044 00/M06 A2931 RMK AO2 PK WND 27027/49 UPE03 SLP929 P0000 T10041059 FZRANO
cycle: 14

Station Type Date Time Source
PASY TAF 2020/11/27 14:17 UTC NOAA

TAF PASY 271400Z 2714/2820 28020G30KT 9999 FEW040 QNH2923INS
BECMG 2716/2717 28020G25KT 9999 FEW030 QNH2931INS TX03/2801Z TNM03/2812Z LIMITED METWATCH 2714 TIL 2722

Example: see airport list